Tenko Maru — HPRN — position and weather

sailwx.info

Track history (hours):
 
Tides and Currents Weather Stations Pressure Air Temp Water Temp Dewpoint Dewpoint Depression Visibility Wind Speed Wind Dir Waves Ship Positions

Tenko Maru

Last reported at 2015-Sep-04 08:17 UTC. Time now 2015-Sep-04 12:30 UTC.
Position N 35°02' E 120°10'.

Length 190 m; draft 8.4 m.

Type: Cargo ship. MMSI: 370715000.

Date/timePositionNaut miles runAvg speedWind from/ knotsBaromVisibWave heightAir tempDewpointWater temp
2015-Sep-04 08:17N 35°02' E 120°10'1111.7
2015-Sep-04 07:21N 35°05' E 119°57'912.0
2015-Sep-04 06:33N 35°08' E 119°46'1511.0
2015-Sep-04 05:11N 35°06' E 119°28'2 2.9
2015-Sep-04 04:22N 35°07' E 119°25'0 0.0
2015-Sep-04 01:04N 35°07' E 119°25'0 0.0
2015-Sep-03 22:16N 35°07' E 119°25'0 0.0
2015-Sep-03 17:33N 35°07' E 119°25'8 0.7
2015-Sep-03 06:26N 35°06' E 119°34'2 1.7
2015-Sep-03 05:28N 35°05' E 119°36'5 1.6
2015-Sep-03 02:16N 35°04' E 119°42'2 1.3
2015-Sep-03 00:32N 35°04' E 119°45'11 9.4
2015-Sep-02 23:22N 35°04' E 119°59'  
2015-Aug-25 23:27N 22°07' E 114°27'1010.7
2015-Aug-25 22:30N 22°07' E 114°16'6 5.4
2015-Aug-25 21:28N 22°10' E 114°10'7 7.1
2015-Aug-25 20:31N 22°09' E 114°17'9 9.1
2015-Aug-25 19:32N 22°01' E 114°22'4811.3
2015-Aug-25 15:19N 21°20' E 113°55'  
Track history (hours):
 
Tides and Currents Weather Stations Pressure Air Temp Water Temp Dewpoint Dewpoint Depression Visibility Wind Speed Wind Dir Waves Ship Positions

Tenko Maru

Last reported at 2015-Sep-04 08:17 UTC. Time now 2015-Sep-04 12:30 UTC.
Position N 35°02' E 120°10'.

Length 190 m; draft 8.4 m.

Type: Cargo ship. MMSI: 370715000.

Date/timePositionNaut miles runAvg speedWind from/ knotsBaromVisibWave heightAir tempDewpointWater temp
2015-Sep-04 08:17N 35°02' E 120°10'1111.7
2015-Sep-04 07:21N 35°05' E 119°57'912.0
2015-Sep-04 06:33N 35°08' E 119°46'1511.0
2015-Sep-04 05:11N 35°06' E 119°28'2 2.9
2015-Sep-04 04:22N 35°07' E 119°25'0 0.0
2015-Sep-04 01:04N 35°07' E 119°25'0 0.0
2015-Sep-03 22:16N 35°07' E 119°25'0 0.0
2015-Sep-03 17:33N 35°07' E 119°25'8 0.7
2015-Sep-03 06:26N 35°06' E 119°34'2 1.7
2015-Sep-03 05:28N 35°05' E 119°36'5 1.6
2015-Sep-03 02:16N 35°04' E 119°42'2 1.3
2015-Sep-03 00:32N 35°04' E 119°45'11 9.4
2015-Sep-02 23:22N 35°04' E 119°59'  
2015-Aug-25 23:27N 22°07' E 114°27'1010.7
2015-Aug-25 22:30N 22°07' E 114°16'6 5.4
2015-Aug-25 21:28N 22°10' E 114°10'7 7.1
2015-Aug-25 20:31N 22°09' E 114°17'9 9.1
2015-Aug-25 19:32N 22°01' E 114°22'4811.3
2015-Aug-25 15:19N 21°20' E 113°55'  

Dump ship's entire track history